createdAt,value
2022-08-12T00:00:52.642Z,37.91
2022-08-12T00:03:38.230Z,38.00
2022-08-12T00:06:24.256Z,38.21
2022-08-12T00:09:10.166Z,38.14
2022-08-12T00:11:57.315Z,38.35
2022-08-12T00:14:42.524Z,38.77
2022-08-12T00:17:27.817Z,38.77
2022-08-12T00:20:13.292Z,38.83
2022-08-12T00:22:59.207Z,38.81
2022-08-12T00:26:21.695Z,38.67
2022-08-12T00:29:02.297Z,38.79
2022-08-12T00:31:48.142Z,38.87
2022-08-12T00:34:33.831Z,39.05
2022-08-12T00:37:19.305Z,39.03
2022-08-12T00:40:10.758Z,39.07
2022-08-12T00:42:40.880Z,39.32
2022-08-12T00:45:11.411Z,39.55
2022-08-12T00:47:39.963Z,39.41
2022-08-12T00:50:17.633Z,39.50
2022-08-12T00:52:46.310Z,39.66
2022-08-12T00:55:14.692Z,39.85
2022-08-12T00:57:48.553Z,39.95
2022-08-12T01:00:21.536Z,40.05
2022-08-12T01:02:52.595Z,39.94
2022-08-12T01:05:40.342Z,40.10
2022-08-12T01:08:26.109Z,40.26
2022-08-12T01:11:13.686Z,40.58
2022-08-12T01:13:43.017Z,40.66
2022-08-12T01:16:12.383Z,40.81
2022-08-12T01:18:41.643Z,40.70
2022-08-12T01:21:16.646Z,41.00
2022-08-12T01:23:58.207Z,41.11
2022-08-12T01:26:27.569Z,40.94
2022-08-12T01:28:58.894Z,41.09
2022-08-12T01:31:29.950Z,41.40
2022-08-12T01:34:06.488Z,41.35
2022-08-12T01:36:57.705Z,41.37
2022-08-12T01:39:30.664Z,41.52
2022-08-12T01:42:05.257Z,41.81
2022-08-12T01:44:35.173Z,41.76
2022-08-12T01:47:19.188Z,41.88
2022-08-12T01:50:05.452Z,42.03
2022-08-12T01:52:43.407Z,42.16
2022-08-12T01:55:12.412Z,42.08
2022-08-12T01:57:57.880Z,42.42
2022-08-12T02:00:43.385Z,42.41
2022-08-12T02:03:23.759Z,42.38
2022-08-12T02:06:18.035Z,42.58
2022-08-12T02:09:06.475Z,42.81
2022-08-12T02:11:36.802Z,43.01
2022-08-12T02:14:32.319Z,43.11
2022-08-12T02:17:10.534Z,42.89
2022-08-12T02:20:01.946Z,43.20
2022-08-12T02:22:32.095Z,43.22
2022-08-12T02:25:08.421Z,43.29
2022-08-12T02:27:40.688Z,43.27
2022-08-12T02:30:11.460Z,43.68
2022-08-12T02:32:41.775Z,43.46
2022-08-12T02:35:14.893Z,43.58
2022-08-12T02:37:45.472Z,43.63
2022-08-12T02:40:15.047Z,43.72
2022-08-12T02:42:51.194Z,43.92
2022-08-12T02:45:28.344Z,44.19
2022-08-12T02:48:02.115Z,44.10
2022-08-12T02:50:34.968Z,44.11
2022-08-12T02:53:04.817Z,44.39
2022-08-12T02:55:36.550Z,44.63
2022-08-12T02:58:12.098Z,44.70
2022-08-12T03:00:44.515Z,44.65
2022-08-12T03:03:14.647Z,44.59
2022-08-12T03:05:49.710Z,44.76
2022-08-12T03:08:32.553Z,44.71
2022-08-12T03:11:11.996Z,44.77
2022-08-12T03:13:49.598Z,45.09
2022-08-12T03:16:19.478Z,45.08
2022-08-12T03:18:49.614Z,45.42
2022-08-12T03:22:03.807Z,45.48
2022-08-12T03:24:08.753Z,45.67
2022-08-12T03:26:37.782Z,45.73
2022-08-12T03:29:07.185Z,46.33
2022-08-12T03:31:36.385Z,46.48
2022-08-12T03:34:07.508Z,46.89
2022-08-12T03:36:39.082Z,46.95
2022-08-12T03:39:23.565Z,47.15
2022-08-12T03:42:14.347Z,47.39
2022-08-12T03:45:11.382Z,47.42
2022-08-12T03:48:05.580Z,47.71
2022-08-12T03:50:51.056Z,47.94
2022-08-12T03:53:45.483Z,48.14
2022-08-12T03:56:31.093Z,48.26
2022-08-12T03:59:17.630Z,48.56
2022-08-12T04:01:52.393Z,49.02
2022-08-12T04:04:23.537Z,48.74
2022-08-12T04:06:51.794Z,48.85
2022-08-12T04:09:21.557Z,48.77
2022-08-12T04:12:07.576Z,49.15
2022-08-12T04:14:35.999Z,49.13
2022-08-12T04:17:05.351Z,49.39
2022-08-12T04:19:34.554Z,49.38
2022-08-12T04:22:03.704Z,49.57
2022-08-12T04:24:34.973Z,49.77
2022-08-12T04:27:05.080Z,49.89
2022-08-12T04:30:29.581Z,50.10
2022-08-12T04:32:22.186Z,49.93
2022-08-12T04:34:51.892Z,50.08
2022-08-12T04:37:22.454Z,50.04
2022-08-12T04:39:50.913Z,50.13
2022-08-12T04:42:20.103Z,50.27
2022-08-12T04:44:48.412Z,50.30
2022-08-12T04:47:17.968Z,50.37
2022-08-12T04:49:48.120Z,50.48
2022-08-12T04:52:18.508Z,50.67
2022-08-12T04:54:47.511Z,50.83
2022-08-12T04:57:16.032Z,50.85
2022-08-12T04:59:47.850Z,50.69
2022-08-12T05:02:20.454Z,50.83
2022-08-12T05:04:50.729Z,50.73
2022-08-12T05:07:20.179Z,50.83
2022-08-12T05:09:59.469Z,51.20
2022-08-12T05:12:33.907Z,51.15
2022-08-12T05:15:01.707Z,51.34
2022-08-12T05:17:29.731Z,51.37
2022-08-12T05:19:58.158Z,51.31
2022-08-12T05:22:27.841Z,51.29
2022-08-12T05:24:55.939Z,51.25
2022-08-12T05:27:23.754Z,51.18
2022-08-12T05:30:06.758Z,51.22
2022-08-12T05:32:37.550Z,51.14
2022-08-12T05:35:08.096Z,51.02
2022-08-12T05:37:37.291Z,51.00
2022-08-12T05:40:10.849Z,50.57
2022-08-12T05:42:39.273Z,50.42
2022-08-12T05:45:08.575Z,50.69
2022-08-12T05:47:42.541Z,50.65
2022-08-12T05:50:22.171Z,50.45
2022-08-12T05:52:53.031Z,50.39
2022-08-12T05:55:24.161Z,50.06
2022-08-12T05:57:55.319Z,49.79
2022-08-12T06:00:25.481Z,49.44
2022-08-12T06:03:01.364Z,49.40
2022-08-12T06:05:29.529Z,49.01
2022-08-12T06:08:02.512Z,48.89
2022-08-12T06:10:32.933Z,48.72
2022-08-12T06:13:02.548Z,48.55
2022-08-12T06:15:32.179Z,48.32
2022-08-12T06:18:13.152Z,48.05
2022-08-12T06:20:43.842Z,47.13
2022-08-12T06:23:16.587Z,47.26
2022-08-12T06:25:46.511Z,47.12
2022-08-12T06:28:17.598Z,47.20
2022-08-12T06:30:57.296Z,46.80
2022-08-12T06:33:56.029Z,46.66
2022-08-12T06:36:24.998Z,46.39
2022-08-12T06:38:59.473Z,46.20
2022-08-12T06:42:30.637Z,46.01
2022-08-12T06:44:41.034Z,46.09
2022-08-12T06:47:08.796Z,45.58
2022-08-12T06:49:36.907Z,45.60
2022-08-12T06:52:07.378Z,44.84
2022-08-12T06:54:36.592Z,44.65
2022-08-12T06:58:05.419Z,44.78
2022-08-12T06:59:52.519Z,44.02
2022-08-12T07:02:22.780Z,44.24
2022-08-12T07:04:52.584Z,43.58
2022-08-12T07:07:20.466Z,43.49
2022-08-12T07:10:03.964Z,42.97
2022-08-12T07:12:36.828Z,42.74
2022-08-12T07:15:05.346Z,42.95
2022-08-12T07:17:37.806Z,42.49
2022-08-12T07:20:10.033Z,42.55
2022-08-12T07:22:39.069Z,40.99
2022-08-12T07:25:26.812Z,40.92
2022-08-12T07:27:55.164Z,40.81
2022-08-12T07:30:24.016Z,40.44
2022-08-12T07:32:52.259Z,40.15
2022-08-12T07:35:20.511Z,40.33
2022-08-12T07:37:50.454Z,39.56
2022-08-12T07:40:21.084Z,39.72
2022-08-12T07:42:49.607Z,39.46
2022-08-12T07:45:18.097Z,39.56
2022-08-12T07:47:45.902Z,39.08
2022-08-12T07:50:18.880Z,39.61
2022-08-12T07:52:49.502Z,39.16
2022-08-12T07:55:19.579Z,39.11
2022-08-12T07:57:53.316Z,38.77
2022-08-12T08:00:21.291Z,38.36
2022-08-12T08:02:54.207Z,38.46
2022-08-12T08:05:23.787Z,37.96
2022-08-12T08:07:53.274Z,38.21
2022-08-12T08:10:22.564Z,37.59
2022-08-12T08:12:56.034Z,37.14
2022-08-12T08:15:44.648Z,37.52
2022-08-12T08:18:26.620Z,36.95
2022-08-12T08:20:57.282Z,36.60
2022-08-12T08:23:55.791Z,36.60
2022-08-12T08:26:27.131Z,36.50
2022-08-12T08:28:55.050Z,36.35
2022-08-12T08:31:22.805Z,35.99
2022-08-12T08:34:09.117Z,35.75
2022-08-12T08:36:40.363Z,35.97
2022-08-12T08:39:11.604Z,36.51
2022-08-12T08:42:17.444Z,36.05
2022-08-12T08:44:46.785Z,35.04
2022-08-12T08:47:17.542Z,34.06
2022-08-12T08:49:45.626Z,34.18
2022-08-12T08:52:13.391Z,33.95
2022-08-12T08:55:01.164Z,33.03
2022-08-12T08:57:43.600Z,33.53
2022-08-12T09:00:19.689Z,33.08
2022-08-12T09:02:58.778Z,33.12
2022-08-12T09:05:27.944Z,32.49
2022-08-12T09:08:12.184Z,31.90
2022-08-12T09:10:55.229Z,32.25
2022-08-12T09:14:11.167Z,31.30
2022-08-12T09:16:23.156Z,30.49
2022-08-12T09:18:52.493Z,29.48
2022-08-12T09:21:20.665Z,29.23
2022-08-12T09:23:59.414Z,29.97
2022-08-12T09:26:45.803Z,29.10
2022-08-12T09:29:15.939Z,28.61
2022-08-12T09:32:04.137Z,29.37
2022-08-12T09:34:34.082Z,30.00
2022-08-12T09:37:19.353Z,29.39
2022-08-12T09:40:04.553Z,29.04
2022-08-12T09:43:16.153Z,30.43
2022-08-12T09:46:06.718Z,30.01
2022-08-12T09:48:35.119Z,29.69
2022-08-12T09:51:04.892Z,30.22
2022-08-12T09:53:45.795Z,30.25
2022-08-12T09:56:58.682Z,28.99
2022-08-12T10:00:17.092Z,28.71
2022-08-12T10:02:45.637Z,28.80
2022-08-12T10:05:00.471Z,28.29
2022-08-12T10:07:37.652Z,29.65
2022-08-12T10:10:22.969Z,29.21
2022-08-12T10:13:12.884Z,28.74
2022-08-12T10:16:01.512Z,28.92
2022-08-12T10:18:35.831Z,29.58
2022-08-12T10:21:07.474Z,29.94
2022-08-12T10:23:39.772Z,28.71
2022-08-12T10:26:37.054Z,28.62
2022-08-12T10:30:11.878Z,29.00
2022-08-12T10:32:22.108Z,29.05
2022-08-12T10:34:53.366Z,29.69
2022-08-12T10:37:23.681Z,28.60
2022-08-12T10:40:20.531Z,28.80
2022-08-12T10:43:03.638Z,28.15
2022-08-12T10:45:31.896Z,27.77
2022-08-12T10:48:19.150Z,27.61
2022-08-12T10:51:00.458Z,28.57
2022-08-12T10:53:45.195Z,28.02
2022-08-12T10:56:15.335Z,28.18
2022-08-12T10:58:46.028Z,28.41
2022-08-12T11:01:49.822Z,27.50
2022-08-12T11:04:22.741Z,27.89
2022-08-12T11:07:07.998Z,27.06
2022-08-12T11:10:00.752Z,27.11
2022-08-12T11:12:56.633Z,27.12
2022-08-12T11:15:24.414Z,26.17
2022-08-12T11:18:12.233Z,26.32
2022-08-12T11:20:48.043Z,26.16
2022-08-12T11:23:24.981Z,27.17
2022-08-12T11:26:06.824Z,27.31
2022-08-12T11:28:36.978Z,27.63
2022-08-12T11:31:14.118Z,26.98
2022-08-12T11:34:05.749Z,26.31
2022-08-12T11:36:30.943Z,26.05
2022-08-12T11:39:04.502Z,26.44
2022-08-12T11:41:33.555Z,26.52
2022-08-12T11:44:36.170Z,25.80
2022-08-12T11:46:55.146Z,26.56
2022-08-12T11:49:31.115Z,25.69
2022-08-12T11:51:59.893Z,26.45
2022-08-12T11:54:29.442Z,25.41
2022-08-12T11:56:59.874Z,26.17
2022-08-12T12:02:20.152Z,25.37
2022-08-12T12:04:52.921Z,25.07
2022-08-12T12:08:38.949Z,24.91
2022-08-12T12:10:13.955Z,25.03
2022-08-12T12:12:49.567Z,25.17
2022-08-12T12:15:25.227Z,24.27
2022-08-12T12:18:05.112Z,23.43
2022-08-12T12:20:32.922Z,24.54
2022-08-12T12:23:01.804Z,25.12
2022-08-12T12:26:06.482Z,24.91
2022-08-12T12:28:36.838Z,25.61
2022-08-12T12:31:15.162Z,24.58
2022-08-12T12:33:58.020Z,24.76
2022-08-12T12:36:29.908Z,24.74
2022-08-12T12:39:00.222Z,24.21
2022-08-12T12:42:42.141Z,24.99
2022-08-12T12:44:30.247Z,24.75
2022-08-12T12:47:28.804Z,24.23
2022-08-12T12:49:53.932Z,24.11
2022-08-12T12:52:27.014Z,24.17
2022-08-12T12:54:55.467Z,24.24
2022-08-12T12:57:36.075Z,23.99
2022-08-12T13:00:18.022Z,24.44
2022-08-12T13:02:54.309Z,23.54
2022-08-12T13:05:28.273Z,23.64
2022-08-12T13:08:00.757Z,23.27
2022-08-12T13:10:36.966Z,23.27
2022-08-12T13:14:07.706Z,23.28
2022-08-12T13:15:59.038Z,23.18
2022-08-12T13:18:28.821Z,22.97
2022-08-12T13:20:59.692Z,23.30
2022-08-12T13:23:35.965Z,23.28
2022-08-12T13:26:07.694Z,22.91
2022-08-12T13:28:45.628Z,22.93
2022-08-12T13:31:22.331Z,23.82
2022-08-12T13:34:34.646Z,23.19
2022-08-12T13:36:40.989Z,23.72
2022-08-12T13:39:09.312Z,23.18
2022-08-12T13:41:37.696Z,22.61
2022-08-12T13:44:10.735Z,23.06
2022-08-12T13:46:40.860Z,23.54
2022-08-12T13:49:11.485Z,23.96
2022-08-12T13:51:54.224Z,22.87
2022-08-12T13:54:22.070Z,21.73
2022-08-12T13:56:51.503Z,21.76
2022-08-12T13:59:24.633Z,21.95
2022-08-12T14:01:56.859Z,22.19
2022-08-12T14:04:24.819Z,21.54
2022-08-12T14:06:53.995Z,21.04
2022-08-12T14:09:22.113Z,21.03
2022-08-12T14:11:59.343Z,20.65
2022-08-12T14:14:31.284Z,21.22
2022-08-12T14:17:05.712Z,21.12
2022-08-12T14:19:48.753Z,20.85
2022-08-12T14:22:21.488Z,20.51
2022-08-12T14:24:54.266Z,20.76
2022-08-12T14:28:03.301Z,21.11
2022-08-12T14:30:28.797Z,20.49
2022-08-12T14:32:57.631Z,20.65
2022-08-12T14:35:25.371Z,21.41
2022-08-12T14:37:56.169Z,21.60
2022-08-12T14:40:28.185Z,21.06
2022-08-12T14:42:57.009Z,20.81
2022-08-12T14:45:44.584Z,21.26
2022-08-12T14:48:16.552Z,21.51
2022-08-12T14:51:03.307Z,20.01
2022-08-12T14:59:57.068Z,20.47
2022-08-12T15:02:20.858Z,20.09
2022-08-12T15:04:56.054Z,19.56
2022-08-12T15:07:33.319Z,19.76
2022-08-12T15:10:13.433Z,19.56
2022-08-12T15:12:41.656Z,20.20
2022-08-12T15:15:10.466Z,20.54
2022-08-12T15:17:40.502Z,21.20
2022-08-12T15:20:32.402Z,21.58
2022-08-12T15:22:58.101Z,21.74
2022-08-12T15:25:26.034Z,22.06
2022-08-12T15:28:03.972Z,21.87
2022-08-12T15:30:33.861Z,21.47
2022-08-12T15:33:12.577Z,21.37
2022-08-12T15:35:52.275Z,21.26
2022-08-12T15:38:25.304Z,21.95
2022-08-12T15:40:55.241Z,22.04
2022-08-12T15:44:15.670Z,22.37
2022-08-12T15:46:15.146Z,22.98
2022-08-12T15:48:47.461Z,22.62
2022-08-12T15:51:58.855Z,22.47
2022-08-12T15:54:33.104Z,21.65
2022-08-12T15:57:05.828Z,21.61
2022-08-12T16:00:04.536Z,21.71
2022-08-12T16:02:27.132Z,22.22
2022-08-12T16:04:58.649Z,22.68
2022-08-12T16:07:32.542Z,22.17
2022-08-12T16:10:08.304Z,22.28
2022-08-12T16:12:43.405Z,22.18
2022-08-12T16:15:24.995Z,22.32
2022-08-12T16:18:19.521Z,22.02
2022-08-12T16:20:46.517Z,21.90
2022-08-12T16:23:36.319Z,22.72
2022-08-12T16:26:14.183Z,22.19
2022-08-12T16:28:43.169Z,22.59
2022-08-12T16:31:18.618Z,22.28
2022-08-12T16:33:59.108Z,22.19
2022-08-12T16:36:30.525Z,22.72
2022-08-12T16:39:01.759Z,22.67
2022-08-12T16:41:33.521Z,22.42
2022-08-12T16:44:08.524Z,22.70
2022-08-12T16:46:37.674Z,22.63
2022-08-12T16:49:13.146Z,22.46
2022-08-12T16:51:46.673Z,22.25
2022-08-12T16:54:16.557Z,22.29
2022-08-12T16:56:54.513Z,22.63
2022-08-12T16:59:26.279Z,22.65
2022-08-12T17:01:59.078Z,22.42
2022-08-12T17:04:29.114Z,22.71
2022-08-12T17:06:58.562Z,22.82
2022-08-12T17:09:27.071Z,22.48
2022-08-12T17:12:08.900Z,22.32
2022-08-12T17:14:38.074Z,22.62
2022-08-12T17:17:18.578Z,22.83
2022-08-12T17:20:28.643Z,22.66
2022-08-12T17:22:56.011Z,22.84
2022-08-12T17:25:25.533Z,23.30
2022-08-12T17:27:58.977Z,23.02
2022-08-12T17:30:29.638Z,23.46
2022-08-12T17:33:02.678Z,23.31
2022-08-12T17:35:37.269Z,23.35
2022-08-12T17:38:13.623Z,23.76
2022-08-12T17:40:43.680Z,23.74
2022-08-12T17:43:56.784Z,23.55
2022-08-12T17:46:13.139Z,23.53
2022-08-12T17:48:54.926Z,23.78
2022-08-12T17:51:26.429Z,23.68
2022-08-12T17:54:10.790Z,23.67
2022-08-12T17:56:43.302Z,23.67
2022-08-12T17:59:12.331Z,23.81
2022-08-12T18:01:45.327Z,23.91
2022-08-12T18:04:22.413Z,23.95
2022-08-12T18:06:52.016Z,24.15
2022-08-12T18:09:24.371Z,24.46
2022-08-12T18:12:11.885Z,24.12
2022-08-12T18:14:41.487Z,24.17
2022-08-12T18:17:11.958Z,24.55
2022-08-12T18:20:05.625Z,24.49
2022-08-12T18:22:40.905Z,24.47
2022-08-12T18:26:11.418Z,24.80
2022-08-12T18:28:11.644Z,25.05
2022-08-12T18:30:53.014Z,24.90
2022-08-12T18:33:24.859Z,25.30
2022-08-12T18:35:55.498Z,25.33
2022-08-12T18:38:25.756Z,25.77
2022-08-12T18:41:21.723Z,25.60
2022-08-12T18:43:59.452Z,25.43
2022-08-12T18:46:33.223Z,25.58
2022-08-12T18:49:18.269Z,25.74
2022-08-12T18:51:55.535Z,25.75
2022-08-12T18:54:35.672Z,26.17
2022-08-12T18:57:16.654Z,26.18
2022-08-12T19:00:06.981Z,26.46
2022-08-12T19:02:40.654Z,26.22
2022-08-12T19:05:10.623Z,26.54
2022-08-12T19:08:00.147Z,26.91
2022-08-12T19:10:30.444Z,26.97
2022-08-12T19:13:23.143Z,27.23
2022-08-12T19:15:53.450Z,27.68
2022-08-12T19:18:22.120Z,27.80
2022-08-12T19:20:50.746Z,27.77
2022-08-12T19:23:21.287Z,27.91
2022-08-12T19:25:59.582Z,27.97
2022-08-12T19:28:35.461Z,28.76
2022-08-12T19:31:55.821Z,28.41
2022-08-12T19:34:56.480Z,28.55
2022-08-12T19:37:20.032Z,28.69
2022-08-12T19:40:09.950Z,28.87
2022-08-12T19:42:42.662Z,28.96
2022-08-12T19:45:15.666Z,29.10
2022-08-12T19:47:44.698Z,28.81
2022-08-12T19:50:19.661Z,28.96
2022-08-12T19:52:53.077Z,29.20
2022-08-12T19:55:23.323Z,29.13
2022-08-12T19:58:03.101Z,29.41
2022-08-12T20:00:34.429Z,29.77
2022-08-12T20:03:04.835Z,30.00
2022-08-12T20:06:05.216Z,30.33
2022-08-12T20:08:34.764Z,30.34
2022-08-12T20:12:13.268Z,30.65
2022-08-12T20:14:00.702Z,30.68
2022-08-12T20:16:52.580Z,30.58
2022-08-12T20:19:52.928Z,30.91
2022-08-12T20:22:20.345Z,30.64
2022-08-12T20:24:55.127Z,30.78
2022-08-12T20:27:53.668Z,31.27
2022-08-12T20:30:14.222Z,31.10
2022-08-12T20:32:53.918Z,30.94
2022-08-12T20:35:24.329Z,31.45
2022-08-12T20:38:06.659Z,31.34
2022-08-12T20:40:38.382Z,31.28
2022-08-12T20:43:08.561Z,31.26
2022-08-12T20:45:44.665Z,31.57
2022-08-12T20:48:21.633Z,31.63
2022-08-12T20:50:53.791Z,31.95
2022-08-12T20:53:33.083Z,31.66
2022-08-12T20:56:54.334Z,32.06
2022-08-12T20:59:47.873Z,31.71
2022-08-12T21:02:24.145Z,32.17
2022-08-12T21:05:20.054Z,32.23
2022-08-12T21:07:51.526Z,32.37
2022-08-12T21:10:20.744Z,32.69
2022-08-12T21:12:50.758Z,32.81
2022-08-12T21:15:30.223Z,33.37
2022-08-12T21:18:11.593Z,33.23
2022-08-12T21:20:54.237Z,33.31
2022-08-12T21:23:23.635Z,33.35
2022-08-12T21:25:56.102Z,33.33
2022-08-12T21:28:30.885Z,33.48
2022-08-12T21:32:37.616Z,33.53
2022-08-12T21:34:08.145Z,33.56
2022-08-12T21:36:48.151Z,33.75
2022-08-12T21:39:20.736Z,33.95
2022-08-12T21:41:51.924Z,34.10
2022-08-12T21:44:24.630Z,34.09
2022-08-12T21:47:20.404Z,34.04
2022-08-12T21:50:04.086Z,34.48
2022-08-12T21:52:41.880Z,34.49
2022-08-12T21:55:17.830Z,34.59
2022-08-12T21:57:53.241Z,34.50
2022-08-12T22:00:31.798Z,34.78
2022-08-12T22:04:01.365Z,34.87
2022-08-12T22:06:20.342Z,34.84
2022-08-12T22:09:02.221Z,35.08
2022-08-12T22:11:42.379Z,35.19
2022-08-12T22:14:21.282Z,35.50
2022-08-12T22:16:50.729Z,35.43
2022-08-12T22:19:19.751Z,35.65
2022-08-12T22:21:53.354Z,35.48
2022-08-12T22:24:26.665Z,35.65
2022-08-12T22:26:56.485Z,35.92
2022-08-12T22:29:42.383Z,36.09
2022-08-12T22:32:11.366Z,36.24
2022-08-12T22:34:40.208Z,36.22
2022-08-12T22:37:19.831Z,36.31
2022-08-12T22:39:49.638Z,36.24
2022-08-12T22:42:37.271Z,36.26
2022-08-12T22:45:24.842Z,36.32
2022-08-12T22:47:56.429Z,36.43
2022-08-12T22:50:28.508Z,37.00
2022-08-12T22:53:15.165Z,36.95
2022-08-12T22:55:59.699Z,37.10
2022-08-12T22:58:35.230Z,37.30
2022-08-12T23:01:03.649Z,37.22
2022-08-12T23:03:49.409Z,37.61
2022-08-12T23:06:19.720Z,37.68
2022-08-12T23:08:48.551Z,37.78
2022-08-12T23:11:23.986Z,37.65
2022-08-12T23:13:56.365Z,37.82
2022-08-12T23:16:31.134Z,38.12
2022-08-12T23:19:09.939Z,37.88
2022-08-12T23:22:05.499Z,38.06
2022-08-12T23:24:41.059Z,38.33
2022-08-12T23:27:50.428Z,38.52
2022-08-12T23:30:24.603Z,38.52
2022-08-12T23:32:54.753Z,38.80
2022-08-12T23:35:45.297Z,38.60
2022-08-12T23:38:24.639Z,38.91
2022-08-12T23:41:00.827Z,38.68
2022-08-12T23:43:40.071Z,38.84
2022-08-12T23:46:09.875Z,39.13
2022-08-12T23:48:38.430Z,39.20
2022-08-12T23:51:22.027Z,39.16
2022-08-12T23:53:53.545Z,39.09
2022-08-12T23:56:24.107Z,39.09
2022-08-12T23:58:55.177Z,38.91
